Bourg, LA (70343)

12:29 PM CST on December 28, 2014 (GMT -0600)
Bayou Blue | Change Station
CLOSE
Current Station
Personal Weather Station
Location: Houma, LA
Elevation: 6 ft
Nearby Weather Stations

Elev 6 ft 29.60 °N, 90.62 °W | Updated 8 seconds ago

Fog
Fog
65.7 °F
Feels Like 65.7 °F
N
4.7
Wind Variable Wind from NNW
Gusts 8.3 mph

Today
High -- | Low -- °F
--% Chance of Precip.
Yesterday
High -- | Low -- °F
Precip. -- in
6:56 AM 5:12 PM
Waxing Crescent, 50% visible
Pressure 30.07 in
Visibility 2.0 miles
Clouds Overcast 300 ft
Dew Point 62 °F
Humidity 87%
Rainfall 0.00 in
Snow Depth Not available.
UV 2 out of 12
Pollen 1.60 out of 12
Air Quality Not available.
Flu Activity Not available.
METAR KHUM 281747Z 31007KT 2SM BR OVC003 18/17 A3007 RMK RY12/30 CLSD ATIS I GPS/RY36 (ILS RY/18 AVAILABLE ON REQUEST) MS

More Conditions Fewer Conditions

Pressure 30.07 in
Visibility 2.0 miles
Clouds Overcast 300 ft
Dew Point 62 °F
Humidity 87%
Rainfall 0.00 in
Snow Depth Not available.
UV 2 out of 12
Pollen 1.60 out of 12
Air Quality Not available.
Flu Activity Not available.
METAR KHUM 281747Z 31007KT 2SM BR OVC003 18/17 A3007 RMK RY12/30 CLSD ATIS I GPS/RY36 (ILS RY/18 AVAILABLE ON REQUEST) MS

More Conditions Fewer Conditions

10-Day Weather Forecast

Almanac

Astronomy

Dec. 28, 2014 Rise Set
Actual Time
Civil Twilight
Nautical Twilight
Astronomical Twilight
Moon
Length of Visible Light
Length of Day
Tomorrow will be .
, % of the Moon is Illuminated

Today's Extremes

State Highs State Lows

Community

WunderPhotos

Upload Photos

1,781,379 photos uploaded!

WunderBlogs® & News

Nearby

Air Quality

  Air Quality AQ Index Pollutant
Not available.

Snow Depth

Station Depth Elevation

Earthquake Activity

City Distance Mag. Time & Date
Minimum magnitude displayed is 2.5.

Coastal Water Temperatures

Place Temperature

Nearby Weather Stations